sensor_id;sensor_type;location;lat;lon;timestamp;temperature;humidity
10171;DHT22;5127;50.922;6.988;2024-03-22T00:01:58;14.10;72.20
10171;DHT22;5127;50.922;6.988;2024-03-22T00:04:25;14.10;72.20
10171;DHT22;5127;50.922;6.988;2024-03-22T00:06:53;14.10;72.30
10171;DHT22;5127;50.922;6.988;2024-03-22T00:09:19;14.00;72.20
10171;DHT22;5127;50.922;6.988;2024-03-22T00:11:46;14.00;72.20
10171;DHT22;5127;50.922;6.988;2024-03-22T00:14:13;14.00;72.30
10171;DHT22;5127;50.922;6.988;2024-03-22T00:16:40;14.00;72.30
10171;DHT22;5127;50.922;6.988;2024-03-22T00:19:07;14.00;73.10
10171;DHT22;5127;50.922;6.988;2024-03-22T00:21:35;14.00;72.40
10171;DHT22;5127;50.922;6.988;2024-03-22T00:24:01;14.00;72.40
10171;DHT22;5127;50.922;6.988;2024-03-22T00:26:29;14.00;72.40
10171;DHT22;5127;50.922;6.988;2024-03-22T00:28:55;14.00;72.30
10171;DHT22;5127;50.922;6.988;2024-03-22T00:31:24;14.00;72.40
10171;DHT22;5127;50.922;6.988;2024-03-22T00:33:50;13.90;72.30
10171;DHT22;5127;50.922;6.988;2024-03-22T00:36:19;13.90;72.40
10171;DHT22;5127;50.922;6.988;2024-03-22T00:38:46;13.90;72.40
10171;DHT22;5127;50.922;6.988;2024-03-22T00:41:13;13.90;72.40
10171;DHT22;5127;50.922;6.988;2024-03-22T00:43:40;13.80;72.40
10171;DHT22;5127;50.922;6.988;2024-03-22T00:46:07;13.90;72.50
10171;DHT22;5127;50.922;6.988;2024-03-22T00:48:33;13.80;72.50
10171;DHT22;5127;50.922;6.988;2024-03-22T00:51:02;13.80;72.50
10171;DHT22;5127;50.922;6.988;2024-03-22T00:53:30;13.80;72.50
10171;DHT22;5127;50.922;6.988;2024-03-22T00:55:57;13.80;72.60
10171;DHT22;5127;50.922;6.988;2024-03-22T00:58:26;13.80;72.70
10171;DHT22;5127;50.922;6.988;2024-03-22T01:00:53;13.80;72.70
10171;DHT22;5127;50.922;6.988;2024-03-22T01:03:20;13.70;72.60
10171;DHT22;5127;50.922;6.988;2024-03-22T01:05:48;13.80;72.80
10171;DHT22;5127;50.922;6.988;2024-03-22T01:08:14;13.80;72.80
10171;DHT22;5127;50.922;6.988;2024-03-22T01:10:43;13.70;72.80
10171;DHT22;5127;50.922;6.988;2024-03-22T01:13:09;13.70;72.70
10171;DHT22;5127;50.922;6.988;2024-03-22T01:15:36;13.80;72.90
10171;DHT22;5127;50.922;6.988;2024-03-22T01:18:03;13.90;73.00
10171;DHT22;5127;50.922;6.988;2024-03-22T01:20:30;13.70;72.90
10171;DHT22;5127;50.922;6.988;2024-03-22T01:22:56;13.70;72.90
10171;DHT22;5127;50.922;6.988;2024-03-22T01:25:24;13.80;73.00
10171;DHT22;5127;50.922;6.988;2024-03-22T01:27:51;13.80;73.00
10171;DHT22;5127;50.922;6.988;2024-03-22T01:30:19;13.80;73.00
10171;DHT22;5127;50.922;6.988;2024-03-22T01:32:45;13.80;73.00
10171;DHT22;5127;50.922;6.988;2024-03-22T01:35:12;13.80;73.00
10171;DHT22;5127;50.922;6.988;2024-03-22T01:37:39;13.80;73.00
10171;DHT22;5127;50.922;6.988;2024-03-22T01:40:08;13.80;73.10
10171;DHT22;5127;50.922;6.988;2024-03-22T01:42:34;13.80;73.00
10171;DHT22;5127;50.922;6.988;2024-03-22T01:45:03;13.80;73.00
10171;DHT22;5127;50.922;6.988;2024-03-22T01:47:30;13.80;73.00
10171;DHT22;5127;50.922;6.988;2024-03-22T01:49:58;13.80;73.10
10171;DHT22;5127;50.922;6.988;2024-03-22T01:52:24;13.80;73.10
10171;DHT22;5127;50.922;6.988;2024-03-22T01:54:51;13.80;73.10
10171;DHT22;5127;50.922;6.988;2024-03-22T01:57:19;13.70;73.00
10171;DHT22;5127;50.922;6.988;2024-03-22T01:59:46;13.80;73.10
10171;DHT22;5127;50.922;6.988;2024-03-22T02:02:15;13.80;73.10
10171;DHT22;5127;50.922;6.988;2024-03-22T02:04:42;13.80;73.20
10171;DHT22;5127;50.922;6.988;2024-03-22T02:07:09;13.70;73.00
10171;DHT22;5127;50.922;6.988;2024-03-22T02:09:36;13.70;73.10
10171;DHT22;5127;50.922;6.988;2024-03-22T02:12:03;13.80;73.20
10171;DHT22;5127;50.922;6.988;2024-03-22T02:14:31;13.80;73.10
10171;DHT22;5127;50.922;6.988;2024-03-22T02:16:57;13.80;73.10
10171;DHT22;5127;50.922;6.988;2024-03-22T02:19:26;13.80;73.10
10171;DHT22;5127;50.922;6.988;2024-03-22T02:21:52;13.70;73.10
10171;DHT22;5127;50.922;6.988;2024-03-22T02:24:20;13.80;73.20
10171;DHT22;5127;50.922;6.988;2024-03-22T02:26:47;13.70;73.20
10171;DHT22;5127;50.922;6.988;2024-03-22T02:29:14;13.70;73.20
10171;DHT22;5127;50.922;6.988;2024-03-22T02:31:40;13.80;73.30
10171;DHT22;5127;50.922;6.988;2024-03-22T02:34:07;13.80;73.30
10171;DHT22;5127;50.922;6.988;2024-03-22T02:36:34;13.70;73.20
10171;DHT22;5127;50.922;6.988;2024-03-22T02:39:02;13.70;73.20
10171;DHT22;5127;50.922;6.988;2024-03-22T02:41:31;13.80;73.30
10171;DHT22;5127;50.922;6.988;2024-03-22T02:43:58;13.80;73.30
10171;DHT22;5127;50.922;6.988;2024-03-22T02:46:25;13.80;73.30
10171;DHT22;5127;50.922;6.988;2024-03-22T02:48:52;13.80;73.30
10171;DHT22;5127;50.922;6.988;2024-03-22T02:51:19;13.80;73.40
10171;DHT22;5127;50.922;6.988;2024-03-22T02:53:45;13.80;73.40
10171;DHT22;5127;50.922;6.988;2024-03-22T02:56:12;13.80;73.50
10171;DHT22;5127;50.922;6.988;2024-03-22T02:58:40;13.80;73.40
10171;DHT22;5127;50.922;6.988;2024-03-22T03:01:07;13.80;73.40
10171;DHT22;5127;50.922;6.988;2024-03-22T03:03:34;13.80;73.50
10171;DHT22;5127;50.922;6.988;2024-03-22T03:06:01;13.80;73.40
10171;DHT22;5127;50.922;6.988;2024-03-22T03:08:27;13.80;73.40
10171;DHT22;5127;50.922;6.988;2024-03-22T03:10:55;13.80;73.40
10171;DHT22;5127;50.922;6.988;2024-03-22T03:13:21;13.80;73.50
10171;DHT22;5127;50.922;6.988;2024-03-22T03:15:49;13.90;73.60
10171;DHT22;5127;50.922;6.988;2024-03-22T03:18:16;13.80;73.40
10171;DHT22;5127;50.922;6.988;2024-03-22T03:20:43;13.80;74.30
10171;DHT22;5127;50.922;6.988;2024-03-22T03:23:09;13.90;73.60
10171;DHT22;5127;50.922;6.988;2024-03-22T03:25:38;13.90;73.60
10171;DHT22;5127;50.922;6.988;2024-03-22T03:28:04;13.90;73.70
10171;DHT22;5127;50.922;6.988;2024-03-22T03:30:33;13.90;73.70
10171;DHT22;5127;50.922;6.988;2024-03-22T03:33:01;13.90;73.70
10171;DHT22;5127;50.922;6.988;2024-03-22T03:35:29;14.00;73.80
10171;DHT22;5127;50.922;6.988;2024-03-22T03:37:55;14.00;73.80
10171;DHT22;5127;50.922;6.988;2024-03-22T03:40:23;14.00;73.90
10171;DHT22;5127;50.922;6.988;2024-03-22T03:42:50;13.90;73.70
10171;DHT22;5127;50.922;6.988;2024-03-22T03:45:18;14.00;73.80
10171;DHT22;5127;50.922;6.988;2024-03-22T03:47:44;13.90;73.70
10171;DHT22;5127;50.922;6.988;2024-03-22T03:50:13;13.90;74.60
10171;DHT22;5127;50.922;6.988;2024-03-22T03:52:39;14.00;73.90
10171;DHT22;5127;50.922;6.988;2024-03-22T03:55:07;14.00;74.00
10171;DHT22;5127;50.922;6.988;2024-03-22T03:57:33;14.00;74.70
10171;DHT22;5127;50.922;6.988;2024-03-22T04:00:00;14.00;74.00
10171;DHT22;5127;50.922;6.988;2024-03-22T04:02:27;14.00;74.00
10171;DHT22;5127;50.922;6.988;2024-03-22T04:04:54;14.00;74.00
10171;DHT22;5127;50.922;6.988;2024-03-22T04:07:22;14.00;74.00
10171;DHT22;5127;50.922;6.988;2024-03-22T04:09:49;14.00;74.00
10171;DHT22;5127;50.922;6.988;2024-03-22T04:12:15;14.00;74.10
10171;DHT22;5127;50.922;6.988;2024-03-22T04:14:43;14.00;74.10
10171;DHT22;5127;50.922;6.988;2024-03-22T04:17:09;14.00;74.10
10171;DHT22;5127;50.922;6.988;2024-03-22T04:19:36;14.00;74.10
10171;DHT22;5127;50.922;6.988;2024-03-22T04:22:03;14.00;74.10
10171;DHT22;5127;50.922;6.988;2024-03-22T04:24:31;14.00;74.10
10171;DHT22;5127;50.922;6.988;2024-03-22T04:26:57;14.00;74.10
10171;DHT22;5127;50.922;6.988;2024-03-22T04:29:25;13.90;74.00
10171;DHT22;5127;50.922;6.988;2024-03-22T04:31:51;14.00;74.00
10171;DHT22;5127;50.922;6.988;2024-03-22T04:34:18;14.00;74.30
10171;DHT22;5127;50.922;6.988;2024-03-22T04:36:44;13.90;73.80
10171;DHT22;5127;50.922;6.988;2024-03-22T04:39:12;13.90;73.70
10171;DHT22;5127;50.922;6.988;2024-03-22T04:41:41;13.90;74.40
10171;DHT22;5127;50.922;6.988;2024-03-22T04:44:08;13.80;73.60
10171;DHT22;5127;50.922;6.988;2024-03-22T04:46:34;13.80;73.60
10171;DHT22;5127;50.922;6.988;2024-03-22T04:49:01;13.80;73.90
10171;DHT22;5127;50.922;6.988;2024-03-22T04:51:28;13.70;73.50
10171;DHT22;5127;50.922;6.988;2024-03-22T04:53:55;13.70;73.50
10171;DHT22;5127;50.922;6.988;2024-03-22T04:56:21;13.60;73.40
10171;DHT22;5127;50.922;6.988;2024-03-22T04:58:50;13.60;73.50
10171;DHT22;5127;50.922;6.988;2024-03-22T05:01:16;13.60;73.70
10171;DHT22;5127;50.922;6.988;2024-03-22T05:03:43;13.50;73.70
10171;DHT22;5127;50.922;6.988;2024-03-22T05:06:10;13.50;73.80
10171;DHT22;5127;50.922;6.988;2024-03-22T05:08:37;13.50;73.90
10171;DHT22;5127;50.922;6.988;2024-03-22T05:11:03;13.50;74.00
10171;DHT22;5127;50.922;6.988;2024-03-22T05:13:31;13.50;74.10
10171;DHT22;5127;50.922;6.988;2024-03-22T05:15:58;13.50;74.90
10171;DHT22;5127;50.922;6.988;2024-03-22T05:18:25;13.50;74.30
10171;DHT22;5127;50.922;6.988;2024-03-22T05:20:52;13.50;74.30
10171;DHT22;5127;50.922;6.988;2024-03-22T05:23:19;13.50;74.40
10171;DHT22;5127;50.922;6.988;2024-03-22T05:25:45;13.50;74.40
10171;DHT22;5127;50.922;6.988;2024-03-22T05:28:12;13.50;74.40
10171;DHT22;5127;50.922;6.988;2024-03-22T05:30:38;13.50;74.50
10171;DHT22;5127;50.922;6.988;2024-03-22T05:33:07;13.50;74.50
10171;DHT22;5127;50.922;6.988;2024-03-22T05:35:33;13.50;74.50
10171;DHT22;5127;50.922;6.988;2024-03-22T05:38:01;13.50;74.50
10171;DHT22;5127;50.922;6.988;2024-03-22T05:40:27;13.60;74.60
10171;DHT22;5127;50.922;6.988;2024-03-22T05:42:54;13.50;74.60
10171;DHT22;5127;50.922;6.988;2024-03-22T05:45:20;13.50;74.60
10171;DHT22;5127;50.922;6.988;2024-03-22T05:47:48;13.60;74.70
10171;DHT22;5127;50.922;6.988;2024-03-22T05:50:15;13.60;74.70
10171;DHT22;5127;50.922;6.988;2024-03-22T05:52:42;13.60;74.80
10171;DHT22;5127;50.922;6.988;2024-03-22T05:55:09;13.60;74.80
10171;DHT22;5127;50.922;6.988;2024-03-22T05:57:36;13.70;75.00
10171;DHT22;5127;50.922;6.988;2024-03-22T06:00:03;13.70;75.00
10171;DHT22;5127;50.922;6.988;2024-03-22T06:02:31;13.70;75.10
10171;DHT22;5127;50.922;6.988;2024-03-22T06:04:57;13.70;75.10
10171;DHT22;5127;50.922;6.988;2024-03-22T06:07:26;13.80;75.30
10171;DHT22;5127;50.922;6.988;2024-03-22T06:09:52;13.80;75.30
10171;DHT22;5127;50.922;6.988;2024-03-22T06:12:19;13.80;75.30
10171;DHT22;5127;50.922;6.988;2024-03-22T06:14:48;13.80;75.30
10171;DHT22;5127;50.922;6.988;2024-03-22T06:17:17;13.80;75.30
10171;DHT22;5127;50.922;6.988;2024-03-22T06:19:44;13.90;75.40
10171;DHT22;5127;50.922;6.988;2024-03-22T06:22:10;14.10;75.60
10171;DHT22;5127;50.922;6.988;2024-03-22T06:24:39;14.00;75.50
10171;DHT22;5127;50.922;6.988;2024-03-22T06:27:06;14.00;75.50
10171;DHT22;5127;50.922;6.988;2024-03-22T06:29:33;14.10;75.70
10171;DHT22;5127;50.922;6.988;2024-03-22T06:31:59;14.10;75.80
10171;DHT22;5127;50.922;6.988;2024-03-22T06:34:26;14.20;75.80
10171;DHT22;5127;50.922;6.988;2024-03-22T06:36:53;14.20;75.80
10171;DHT22;5127;50.922;6.988;2024-03-22T06:39:20;14.20;75.80
10171;DHT22;5127;50.922;6.988;2024-03-22T06:41:48;14.30;75.80
10171;DHT22;5127;50.922;6.988;2024-03-22T06:44:15;14.30;75.80
10171;DHT22;5127;50.922;6.988;2024-03-22T06:46:41;14.40;75.80
10171;DHT22;5127;50.922;6.988;2024-03-22T06:49:09;14.40;75.70
10171;DHT22;5127;50.922;6.988;2024-03-22T06:51:35;14.40;75.70
10171;DHT22;5127;50.922;6.988;2024-03-22T06:54:03;14.50;75.80
10171;DHT22;5127;50.922;6.988;2024-03-22T06:56:29;14.50;75.70
10171;DHT22;5127;50.922;6.988;2024-03-22T06:58:57;14.50;75.80
10171;DHT22;5127;50.922;6.988;2024-03-22T07:01:24;14.50;75.90
10171;DHT22;5127;50.922;6.988;2024-03-22T07:03:51;14.60;76.10
10171;DHT22;5127;50.922;6.988;2024-03-22T07:06:19;14.70;76.50
10171;DHT22;5127;50.922;6.988;2024-03-22T07:08:46;14.80;76.80
10171;DHT22;5127;50.922;6.988;2024-03-22T07:11:12;14.90;77.10
10171;DHT22;5127;50.922;6.988;2024-03-22T07:13:40;15.00;77.30
10171;DHT22;5127;50.922;6.988;2024-03-22T07:16:07;15.20;77.50
10171;DHT22;5127;50.922;6.988;2024-03-22T07:18:34;15.40;77.50
10171;DHT22;5127;50.922;6.988;2024-03-22T07:21:01;15.50;77.70
10171;DHT22;5127;50.922;6.988;2024-03-22T07:23:29;15.70;77.70
10171;DHT22;5127;50.922;6.988;2024-03-22T07:25:56;15.90;77.50
10171;DHT22;5127;50.922;6.988;2024-03-22T07:28:23;16.10;77.20
10171;DHT22;5127;50.922;6.988;2024-03-22T07:30:49;16.20;76.90
10171;DHT22;5127;50.922;6.988;2024-03-22T07:33:18;16.30;76.60
10171;DHT22;5127;50.922;6.988;2024-03-22T07:35:44;16.50;76.20
10171;DHT22;5127;50.922;6.988;2024-03-22T07:38:11;16.40;76.60
10171;DHT22;5127;50.922;6.988;2024-03-22T07:40:37;16.50;75.90
10171;DHT22;5127;50.922;6.988;2024-03-22T07:43:05;16.50;75.60
10171;DHT22;5127;50.922;6.988;2024-03-22T07:45:34;16.60;75.60
10171;DHT22;5127;50.922;6.988;2024-03-22T07:48:01;16.60;75.30
10171;DHT22;5127;50.922;6.988;2024-03-22T07:50:29;16.60;75.40
10171;DHT22;5127;50.922;6.988;2024-03-22T07:52:56;16.60;75.30
10171;DHT22;5127;50.922;6.988;2024-03-22T07:55:22;16.70;75.60
10171;DHT22;5127;50.922;6.988;2024-03-22T07:57:50;16.70;75.90
10171;DHT22;5127;50.922;6.988;2024-03-22T08:00:17;16.80;76.10
10171;DHT22;5127;50.922;6.988;2024-03-22T08:02:44;16.80;76.10
10171;DHT22;5127;50.922;6.988;2024-03-22T08:05:10;17.00;76.60
10171;DHT22;5127;50.922;6.988;2024-03-22T08:07:39;17.00;76.70
10171;DHT22;5127;50.922;6.988;2024-03-22T08:10:06;17.30;76.90
10171;DHT22;5127;50.922;6.988;2024-03-22T08:12:33;17.40;76.80
10171;DHT22;5127;50.922;6.988;2024-03-22T08:15:00;17.50;76.30
10171;DHT22;5127;50.922;6.988;2024-03-22T08:17:28;17.60;75.80
10171;DHT22;5127;50.922;6.988;2024-03-22T08:19:54;17.70;75.50
10171;DHT22;5127;50.922;6.988;2024-03-22T08:22:22;17.80;75.30
10171;DHT22;5127;50.922;6.988;2024-03-22T08:24:50;17.90;75.00
10171;DHT22;5127;50.922;6.988;2024-03-22T08:27:17;17.90;74.40
10171;DHT22;5127;50.922;6.988;2024-03-22T08:29:43;18.00;74.60
10171;DHT22;5127;50.922;6.988;2024-03-22T08:32:10;18.00;74.60
10171;DHT22;5127;50.922;6.988;2024-03-22T08:34:36;18.10;74.80
10171;DHT22;5127;50.922;6.988;2024-03-22T08:37:04;18.20;75.30
10171;DHT22;5127;50.922;6.988;2024-03-22T08:39:30;18.30;76.10
10171;DHT22;5127;50.922;6.988;2024-03-22T08:41:58;18.50;76.70
10171;DHT22;5127;50.922;6.988;2024-03-22T08:44:25;18.70;76.60
10171;DHT22;5127;50.922;6.988;2024-03-22T08:46:52;18.90;76.40
10171;DHT22;5127;50.922;6.988;2024-03-22T08:49:19;19.10;75.90
10171;DHT22;5127;50.922;6.988;2024-03-22T08:51:46;19.20;75.20
10171;DHT22;5127;50.922;6.988;2024-03-22T08:54:14;19.30;74.70
10171;DHT22;5127;50.922;6.988;2024-03-22T08:56:41;19.40;74.10
10171;DHT22;5127;50.922;6.988;2024-03-22T08:59:09;19.40;73.70
10171;DHT22;5127;50.922;6.988;2024-03-22T09:01:36;19.50;73.20
10171;DHT22;5127;50.922;6.988;2024-03-22T09:04:03;19.50;73.20
10171;DHT22;5127;50.922;6.988;2024-03-22T09:06:30;19.50;73.00
10171;DHT22;5127;50.922;6.988;2024-03-22T09:08:57;19.50;72.80
10171;DHT22;5127;50.922;6.988;2024-03-22T09:11:24;19.40;73.00
10171;DHT22;5127;50.922;6.988;2024-03-22T09:13:51;19.40;72.90
10171;DHT22;5127;50.922;6.988;2024-03-22T09:16:21;19.50;73.00
10171;DHT22;5127;50.922;6.988;2024-03-22T09:18:47;19.60;72.90
10171;DHT22;5127;50.922;6.988;2024-03-22T09:21:14;19.60;73.40
10171;DHT22;5127;50.922;6.988;2024-03-22T09:23:41;19.70;73.00
10171;DHT22;5127;50.922;6.988;2024-03-22T09:26:08;19.80;72.70
10171;DHT22;5127;50.922;6.988;2024-03-22T09:28:34;19.90;72.40
10171;DHT22;5127;50.922;6.988;2024-03-22T09:31:05;20.00;72.10
10171;DHT22;5127;50.922;6.988;2024-03-22T09:33:34;20.10;71.00
10171;DHT22;5127;50.922;6.988;2024-03-22T09:36:01;20.10;70.90
10171;DHT22;5127;50.922;6.988;2024-03-22T09:38:28;20.20;71.40
10171;DHT22;5127;50.922;6.988;2024-03-22T09:40:55;20.20;71.10
10171;DHT22;5127;50.922;6.988;2024-03-22T09:43:22;20.30;70.80
10171;DHT22;5127;50.922;6.988;2024-03-22T09:45:50;20.30;70.70
10171;DHT22;5127;50.922;6.988;2024-03-22T09:48:18;20.30;70.50
10171;DHT22;5127;50.922;6.988;2024-03-22T09:50:47;20.40;70.40
10171;DHT22;5127;50.922;6.988;2024-03-22T09:53:14;20.40;70.00
10171;DHT22;5127;50.922;6.988;2024-03-22T09:55:42;20.40;70.10
10171;DHT22;5127;50.922;6.988;2024-03-22T09:58:10;20.50;70.20
10171;DHT22;5127;50.922;6.988;2024-03-22T10:00:40;20.50;69.90
10171;DHT22;5127;50.922;6.988;2024-03-22T10:03:07;20.60;69.90
10171;DHT22;5127;50.922;6.988;2024-03-22T10:05:35;20.60;69.20
10171;DHT22;5127;50.922;6.988;2024-03-22T10:08:04;20.70;69.30
10171;DHT22;5127;50.922;6.988;2024-03-22T10:10:31;20.70;68.50
10171;DHT22;5127;50.922;6.988;2024-03-22T10:13:00;20.70;69.10
10171;DHT22;5127;50.922;6.988;2024-03-22T10:15:27;20.70;68.20
10171;DHT22;5127;50.922;6.988;2024-03-22T10:17:54;20.80;68.80
10171;DHT22;5127;50.922;6.988;2024-03-22T10:20:23;20.70;68.50
10171;DHT22;5127;50.922;6.988;2024-03-22T10:22:55;20.70;68.00
10171;DHT22;5127;50.922;6.988;2024-03-22T10:25:25;20.70;66.90
10171;DHT22;5127;50.922;6.988;2024-03-22T10:27:53;20.70;67.40
10171;DHT22;5127;50.922;6.988;2024-03-22T10:30:21;20.70;67.20
10171;DHT22;5127;50.922;6.988;2024-03-22T10:32:50;20.60;68.20
10171;DHT22;5127;50.922;6.988;2024-03-22T10:35:18;20.70;67.30
10171;DHT22;5127;50.922;6.988;2024-03-22T10:37:45;20.60;67.30
10171;DHT22;5127;50.922;6.988;2024-03-22T10:40:12;20.60;67.40
10171;DHT22;5127;50.922;6.988;2024-03-22T10:42:42;20.60;67.40
10171;DHT22;5127;50.922;6.988;2024-03-22T10:45:10;20.60;66.90
10171;DHT22;5127;50.922;6.988;2024-03-22T10:47:40;20.60;67.10
10171;DHT22;5127;50.922;6.988;2024-03-22T10:50:09;20.60;66.90
10171;DHT22;5127;50.922;6.988;2024-03-22T10:52:38;20.60;67.10
10171;DHT22;5127;50.922;6.988;2024-03-22T10:55:10;20.60;66.70
10171;DHT22;5127;50.922;6.988;2024-03-22T10:57:38;20.60;66.60
10171;DHT22;5127;50.922;6.988;2024-03-22T11:00:10;20.60;67.00
10171;DHT22;5127;50.922;6.988;2024-03-22T11:02:37;20.60;66.10
10171;DHT22;5127;50.922;6.988;2024-03-22T11:05:05;20.60;66.90
10171;DHT22;5127;50.922;6.988;2024-03-22T11:07:33;20.60;67.10
10171;DHT22;5127;50.922;6.988;2024-03-22T11:10:01;20.70;67.10
10171;DHT22;5127;50.922;6.988;2024-03-22T11:12:29;20.70;66.70
10171;DHT22;5127;50.922;6.988;2024-03-22T11:14:59;20.80;67.00
10171;DHT22;5127;50.922;6.988;2024-03-22T11:17:27;20.80;66.90
10171;DHT22;5127;50.922;6.988;2024-03-22T11:19:57;20.80;66.40
10171;DHT22;5127;50.922;6.988;2024-03-22T11:22:25;20.80;66.70
10171;DHT22;5127;50.922;6.988;2024-03-22T11:24:52;20.80;66.60
10171;DHT22;5127;50.922;6.988;2024-03-22T11:27:19;20.80;66.70
10171;DHT22;5127;50.922;6.988;2024-03-22T11:29:46;20.90;66.60
10171;DHT22;5127;50.922;6.988;2024-03-22T11:32:15;20.90;66.40
10171;DHT22;5127;50.922;6.988;2024-03-22T11:34:44;20.90;66.20
10171;DHT22;5127;50.922;6.988;2024-03-22T11:37:10;20.90;65.90
10171;DHT22;5127;50.922;6.988;2024-03-22T11:39:37;20.90;66.30
10171;DHT22;5127;50.922;6.988;2024-03-22T11:42:04;21.00;66.60
10171;DHT22;5127;50.922;6.988;2024-03-22T11:44:33;21.00;66.20
10171;DHT22;5127;50.922;6.988;2024-03-22T11:47:03;21.10;66.20
10171;DHT22;5127;50.922;6.988;2024-03-22T11:49:30;21.10;66.40
10171;DHT22;5127;50.922;6.988;2024-03-22T11:51:58;21.20;66.20
10171;DHT22;5127;50.922;6.988;2024-03-22T11:54:26;21.20;65.60
10171;DHT22;5127;50.922;6.988;2024-03-22T11:56:54;21.20;65.70
10171;DHT22;5127;50.922;6.988;2024-03-22T11:59:22;21.30;65.70
10171;DHT22;5127;50.922;6.988;2024-03-22T12:01:48;21.20;65.40
10171;DHT22;5127;50.922;6.988;2024-03-22T12:04:16;21.20;65.30
10171;DHT22;5127;50.922;6.988;2024-03-22T12:06:42;21.20;64.80
10171;DHT22;5127;50.922;6.988;2024-03-22T12:09:11;21.20;64.80
10171;DHT22;5127;50.922;6.988;2024-03-22T12:11:39;21.20;64.60
10171;DHT22;5127;50.922;6.988;2024-03-22T12:14:06;21.10;64.80
10171;DHT22;5127;50.922;6.988;2024-03-22T12:16:32;21.00;64.60
10171;DHT22;5127;50.922;6.988;2024-03-22T12:19:00;21.00;64.70
10171;DHT22;5127;50.922;6.988;2024-03-22T12:21:26;21.00;64.70
10171;DHT22;5127;50.922;6.988;2024-03-22T12:23:53;21.00;64.50
10171;DHT22;5127;50.922;6.988;2024-03-22T12:26:22;20.90;64.30
10171;DHT22;5127;50.922;6.988;2024-03-22T12:28:49;20.90;63.90
10171;DHT22;5127;50.922;6.988;2024-03-22T12:31:17;20.90;64.40
10171;DHT22;5127;50.922;6.988;2024-03-22T12:33:44;20.80;63.80
10171;DHT22;5127;50.922;6.988;2024-03-22T12:36:11;20.80;64.30
10171;DHT22;5127;50.922;6.988;2024-03-22T12:38:38;20.70;64.50
10171;DHT22;5127;50.922;6.988;2024-03-22T12:41:04;20.70;64.50
10171;DHT22;5127;50.922;6.988;2024-03-22T12:43:33;20.70;64.60
10171;DHT22;5127;50.922;6.988;2024-03-22T12:45:59;20.60;64.30
10171;DHT22;5127;50.922;6.988;2024-03-22T12:48:26;20.60;64.40
10171;DHT22;5127;50.922;6.988;2024-03-22T12:50:53;20.60;64.30
10171;DHT22;5127;50.922;6.988;2024-03-22T12:53:20;20.60;64.30
10171;DHT22;5127;50.922;6.988;2024-03-22T12:55:46;20.50;64.00
10171;DHT22;5127;50.922;6.988;2024-03-22T12:58:14;20.50;64.10
10171;DHT22;5127;50.922;6.988;2024-03-22T13:00:41;20.50;64.10
10171;DHT22;5127;50.922;6.988;2024-03-22T13:03:08;20.40;63.80
10171;DHT22;5127;50.922;6.988;2024-03-22T13:05:36;20.40;64.20
10171;DHT22;5127;50.922;6.988;2024-03-22T13:08:04;20.40;64.30
10171;DHT22;5127;50.922;6.988;2024-03-22T13:10:30;20.40;64.30
10171;DHT22;5127;50.922;6.988;2024-03-22T13:12:57;20.30;64.30
10171;DHT22;5127;50.922;6.988;2024-03-22T13:15:23;20.30;64.40
10171;DHT22;5127;50.922;6.988;2024-03-22T13:17:52;20.30;64.60
10171;DHT22;5127;50.922;6.988;2024-03-22T13:20:21;20.30;64.30
10171;DHT22;5127;50.922;6.988;2024-03-22T13:22:48;20.40;64.50
10171;DHT22;5127;50.922;6.988;2024-03-22T13:25:15;20.40;64.50
10171;DHT22;5127;50.922;6.988;2024-03-22T13:27:41;20.50;64.30
10171;DHT22;5127;50.922;6.988;2024-03-22T13:30:09;20.60;64.10
10171;DHT22;5127;50.922;6.988;2024-03-22T13:32:36;20.50;63.60
10171;DHT22;5127;50.922;6.988;2024-03-22T13:35:06;20.50;63.40
10171;DHT22;5127;50.922;6.988;2024-03-22T13:37:33;20.50;62.40
10171;DHT22;5127;50.922;6.988;2024-03-22T13:40:00;20.50;62.80
10171;DHT22;5127;50.922;6.988;2024-03-22T13:42:27;20.50;62.50
10171;DHT22;5127;50.922;6.988;2024-03-22T13:44:55;20.50;62.50
10171;DHT22;5127;50.922;6.988;2024-03-22T13:47:22;20.50;62.50
10171;DHT22;5127;50.922;6.988;2024-03-22T13:49:50;20.50;62.90
10171;DHT22;5127;50.922;6.988;2024-03-22T13:52:17;20.50;63.00
10171;DHT22;5127;50.922;6.988;2024-03-22T13:54:46;20.60;62.80
10171;DHT22;5127;50.922;6.988;2024-03-22T13:57:13;20.60;62.90
10171;DHT22;5127;50.922;6.988;2024-03-22T13:59:40;20.60;62.70
10171;DHT22;5127;50.922;6.988;2024-03-22T14:02:06;20.60;62.40
10171;DHT22;5127;50.922;6.988;2024-03-22T14:04:34;20.60;62.10
10171;DHT22;5127;50.922;6.988;2024-03-22T14:07:01;20.60;62.20
10171;DHT22;5127;50.922;6.988;2024-03-22T14:09:32;20.60;62.10
10171;DHT22;5127;50.922;6.988;2024-03-22T14:11:58;20.50;61.60
10171;DHT22;5127;50.922;6.988;2024-03-22T14:14:26;20.50;61.90
10171;DHT22;5127;50.922;6.988;2024-03-22T14:16:52;20.50;61.80
10171;DHT22;5127;50.922;6.988;2024-03-22T14:19:20;20.50;62.00
10171;DHT22;5127;50.922;6.988;2024-03-22T14:21:47;20.50;62.60
10171;DHT22;5127;50.922;6.988;2024-03-22T14:24:14;20.50;62.60
10171;DHT22;5127;50.922;6.988;2024-03-22T14:26:43;20.50;62.10
10171;DHT22;5127;50.922;6.988;2024-03-22T14:29:09;20.50;61.50
10171;DHT22;5127;50.922;6.988;2024-03-22T14:31:37;20.50;61.90
10171;DHT22;5127;50.922;6.988;2024-03-22T14:34:03;20.50;61.70
10171;DHT22;5127;50.922;6.988;2024-03-22T14:36:31;20.50;61.50
10171;DHT22;5127;50.922;6.988;2024-03-22T14:38:57;20.50;61.50
10171;DHT22;5127;50.922;6.988;2024-03-22T14:41:24;20.50;61.60
10171;DHT22;5127;50.922;6.988;2024-03-22T14:43:52;20.40;61.40
10171;DHT22;5127;50.922;6.988;2024-03-22T14:46:20;20.40;61.10
10171;DHT22;5127;50.922;6.988;2024-03-22T14:48:50;20.40;61.40
10171;DHT22;5127;50.922;6.988;2024-03-22T14:51:18;20.40;61.60
10171;DHT22;5127;50.922;6.988;2024-03-22T14:53:45;20.40;61.70
10171;DHT22;5127;50.922;6.988;2024-03-22T14:56:12;20.30;61.70
10171;DHT22;5127;50.922;6.988;2024-03-22T14:58:40;20.30;62.00
10171;DHT22;5127;50.922;6.988;2024-03-22T15:01:10;20.30;62.00
10171;DHT22;5127;50.922;6.988;2024-03-22T15:03:36;20.30;61.90
10171;DHT22;5127;50.922;6.988;2024-03-22T15:06:04;20.30;62.00
10171;DHT22;5127;50.922;6.988;2024-03-22T15:08:30;20.30;62.00
10171;DHT22;5127;50.922;6.988;2024-03-22T15:10:58;20.30;62.00
10171;DHT22;5127;50.922;6.988;2024-03-22T15:13:24;20.30;62.00
10171;DHT22;5127;50.922;6.988;2024-03-22T15:15:52;20.30;62.00
10171;DHT22;5127;50.922;6.988;2024-03-22T15:18:20;20.30;61.90
10171;DHT22;5127;50.922;6.988;2024-03-22T15:20:48;20.20;61.70
10171;DHT22;5127;50.922;6.988;2024-03-22T15:23:15;20.10;62.00
10171;DHT22;5127;50.922;6.988;2024-03-22T15:25:43;20.00;62.10
10171;DHT22;5127;50.922;6.988;2024-03-22T15:28:09;20.00;62.20
10171;DHT22;5127;50.922;6.988;2024-03-22T15:30:37;19.90;62.40
10171;DHT22;5127;50.922;6.988;2024-03-22T15:33:05;19.80;62.50
10171;DHT22;5127;50.922;6.988;2024-03-22T15:35:34;19.80;62.70
10171;DHT22;5127;50.922;6.988;2024-03-22T15:38:01;19.80;63.00
10171;DHT22;5127;50.922;6.988;2024-03-22T15:40:29;19.70;63.20
10171;DHT22;5127;50.922;6.988;2024-03-22T15:42:58;19.60;63.20
10171;DHT22;5127;50.922;6.988;2024-03-22T15:45:25;19.60;63.40